Harborcreek, PA (16421)

9:26 AM EDT on October 17, 2019 (GMT -0400)
Northeast Harborcreek | | Change Station

Elev 1214 ft 42.19 °N, 79.93 °W | Updated 6 seconds ago

Overcast
Overcast
47.7 °F
Feels Like 46 °F
N
4
Wind Variable Wind from ENE
Gusts 12.0 mph

Today
High -- | Low -- °F
--% Chance of Precip.
Yesterday
High -- | Low -- °F
Precip. -- in
Pressure 29.69 in
Visibility 10.0 miles
Clouds Scattered Clouds 2400 ft
Mostly Cloudy 2900 ft
Overcast 4200 ft
Windchill 46 °F
Dew Point 44 °F
Humidity 86%
Rainfall 0.00 in
Snow Depth Not available.
7:34 AM 6:35 PM
Waning Gibbous, 87% visible
METAR KERI 171251Z 32017G28KT 10SM SCT024 BKN029 OVC042 10/04 A2969 RMK AO2 PK WND 31033/1155 RAB00E20 SLP054 P0000 T01000044
Pressure 29.69 in
Visibility 10.0 miles
Clouds Scattered Clouds 2400 ft
Mostly Cloudy 2900 ft
Overcast 4200 ft
Windchill 46 °F
Dew Point 44 °F
Humidity 86%
Rainfall 0.00 in
Snow Depth Not available.
7:34 AM 6:35 PM
Waning Gibbous, 87% visible
METAR KERI 171251Z 32017G28KT 10SM SCT024 BKN029 OVC042 10/04 A2969 RMK AO2 PK WND 31033/1155 RAB00E20 SLP054 P0000 T01000044

Get Severe Weather Alerts

Thanks for signing up!

Be on the lookout for a verification email in your inbox.

You'll start receiving the daily forecast at 6 AM.

×

10-Day Weather Forecast

Almanac

Astronomy

Oct. 17, 2019 Rise Set
Actual Time
Civil Twilight
Nautical Twilight
Astronomical Twilight
Moon
Length of Visible Light
Length of Day
Tomorrow will be .
, % of the Moon is Illuminated

Today's Extremes

State Highs State Lows

Community

WunderPhotos

Category 6

Welcome to Category 6. This is the collective home for Weather Underground's featured writeups by Dr. Jeff Masters (right), Bob Henson (left), Chris Burt, and other regular contributors.

Nearby

Air Quality

  Air Quality AQ Index Pollutant
Not available.

Snow Depth

Station Depth Elevation

Earthquake Activity

City Distance Mag. Time & Date
Minimum magnitude displayed is 2.5.

Coastal Water Temperatures

Place Temperature

Stations

Nearby Weather Stations

Station Location Temp. Windchill Dew Point Humidity Wind Precip. Elev Updated Type
                   

Watches & Warnings

There are currently no watches in effect.